Time;durP1;ratioP1;P1;durP2;ratioP2;P2;SDS_P1;SDS_P2;PMS_P1;PMS_P2;Temp;Humidity;BMP_temperature;BMP_pressure;BME280_temperature;BME280_humidity;BME280_pressure;Samples;Min_cycle;Max_cycle;Signal;HPM_P1;HPM_P2
2022/10/09 00:00:44;;;;;;;0.30;0.30;;;9.50;99.90;;;;;;4418177;32;20442;-76
2022/10/09 00:03:10;;;;;;;0.45;0.43;;;9.50;99.90;;;;;;4408209;32;20094;-75
2022/10/09 00:05:35;;;;;;;0.30;0.30;;;9.40;99.90;;;;;;4400168;32;20117;-75
2022/10/09 00:08:01;;;;;;;0.30;0.30;;;9.40;99.90;;;;;;4415143;32;20554;-76
2022/10/09 00:10:26;;;;;;;0.40;0.40;;;9.40;99.90;;;;;;4418227;32;20074;-75
2022/10/09 00:12:52;;;;;;;0.65;0.65;;;9.40;99.90;;;;;;4415385;32;20089;-75
2022/10/09 00:15:17;;;;;;;0.40;0.40;;;9.40;99.90;;;;;;4415277;32;20568;-76
2022/10/09 00:17:43;;;;;;;0.40;0.40;;;9.40;99.90;;;;;;4415855;32;20097;-75
2022/10/09 00:20:09;;;;;;;0.30;0.30;;;9.40;99.90;;;;;;4418220;32;20072;-75
2022/10/09 00:22:34;;;;;;;0.65;0.65;;;9.30;99.90;;;;;;4415720;32;20078;-75
2022/10/09 00:25:00;;;;;;;0.75;0.40;;;9.30;99.90;;;;;;4416124;32;20070;-74
2022/10/09 00:27:25;;;;;;;0.52;0.52;;;9.30;99.90;;;;;;4415954;32;20073;-75
2022/10/09 00:29:51;;;;;;;0.40;0.40;;;9.30;99.90;;;;;;4417404;32;20077;-75
2022/10/09 00:32:17;;;;;;;1.05;0.98;;;9.30;99.90;;;;;;4414278;32;20085;-74
2022/10/09 00:34:42;;;;;;;0.30;0.30;;;9.30;99.90;;;;;;4397853;32;20732;-74
2022/10/09 00:37:08;;;;;;;0.37;0.37;;;9.30;99.90;;;;;;4406832;32;20080;-75
2022/10/09 00:39:34;;;;;;;0.40;0.40;;;9.30;99.90;;;;;;4418044;32;20073;-75
2022/10/09 00:42:01;;;;;;;21.12;0.65;;;9.20;99.90;;;;;;4416057;32;20503;-75
2022/10/09 00:44:48;;;;;;;0.88;0.50;;;9.20;99.90;;;;;;4417235;32;20102;-75
2022/10/09 00:47:19;;;;;;;0.40;0.40;;;9.30;99.90;;;;;;4406386;32;20168;-75
2022/10/09 00:49:46;;;;;;;0.57;0.57;;;9.20;99.90;;;;;;4417245;32;20076;-75
2022/10/09 00:52:11;;;;;;;0.55;0.55;;;9.20;99.90;;;;;;4424247;32;20541;-75
2022/10/09 00:54:39;;;;;;;0.30;0.30;;;9.20;99.90;;;;;;4415830;32;20065;-75
2022/10/09 00:57:05;;;;;;;1.65;0.85;;;9.20;99.90;;;;;;4414684;32;20062;-75
2022/10/09 00:59:31;;;;;;;0.25;0.25;;;9.20;99.90;;;;;;4415994;32;20073;-75
2022/10/09 01:01:57;;;;;;;0.40;0.40;;;9.00;99.90;;;;;;4413935;32;20732;-75
2022/10/09 01:04:22;;;;;;;0.45;0.45;;;9.10;99.90;;;;;;4400269;32;20209;-75
2022/10/09 01:07:15;;;;;;;0.40;0.40;;;9.10;99.90;;;;;;4404710;32;20073;-75
2022/10/09 01:09:49;;;;;;;0.20;0.20;;;9.10;99.90;;;;;;4406281;32;20065;-75
2022/10/09 01:12:35;;;;;;;0.40;0.40;;;9.10;99.90;;;;;;4416251;32;20110;-75
2022/10/09 01:15:16;;;;;;;0.28;0.28;;;9.10;99.90;;;;;;4416555;32;20097;-75
2022/10/09 01:18:21;;;;;;;0.70;0.70;;;9.00;99.90;;;;;;4416531;32;20112;-74
2022/10/09 01:20:53;;;;;;;0.20;0.20;;;9.10;99.90;;;;;;4393434;32;20066;-74
2022/10/09 01:23:44;;;;;;;1.08;0.73;;;9.10;99.90;;;;;;4417614;32;20094;-75
2022/10/09 01:26:34;;;;;;;0.65;0.40;;;9.10;99.90;;;;;;4405281;32;20089;-74
2022/10/09 01:29:05;;;;;;;0.30;0.30;;;9.00;99.90;;;;;;4408988;32;20078;-75
2022/10/09 01:31:37;;;;;;;0.25;0.25;;;9.00;99.90;;;;;;4414526;32;20077;-75
2022/10/09 01:34:04;;;;;;;0.30;0.30;;;8.90;99.90;;;;;;4402119;32;20086;-74
2022/10/09 01:36:30;;;;;;;0.98;0.93;;;8.90;99.90;;;;;;4402452;32;20822;-75
2022/10/09 01:38:59;;;;;;;2.55;0.70;;;9.00;99.90;;;;;;4411998;32;20069;-74
2022/10/09 01:41:25;;;;;;;39.05;0.57;;;9.00;99.90;;;;;;4414917;32;20073;-75
2022/10/09 01:43:51;;;;;;;0.30;0.30;;;9.00;99.90;;;;;;4418352;32;20553;-76
2022/10/09 01:46:24;;;;;;;0.60;0.60;;;9.00;99.90;;;;;;4416479;32;20070;-76
2022/10/09 01:48:57;;;;;;;0.47;0.47;;;9.00;99.90;;;;;;4413586;32;20447;-76
2022/10/09 01:51:28;;;;;;;0.30;0.30;;;9.00;99.90;;;;;;4417586;32;20114;-76
2022/10/09 01:53:58;;;;;;;;;;;9.00;99.90;;;;;;4417036;32;20564;-76
2022/10/09 01:56:29;;;;;;;0.45;0.45;;;8.90;99.90;;;;;;4418672;32;19957;-76
2022/10/09 01:58:59;;;;;;;0.28;0.28;;;8.90;99.90;;;;;;4414312;32;20062;-76
2022/10/09 02:01:29;;;;;;;1.05;0.95;;;8.90;99.90;;;;;;4414354;32;20136;-76
2022/10/09 02:03:57;;;;;;;0.50;0.50;;;8.90;99.90;;;;;;4405617;32;20093;-76
2022/10/09 02:06:25;;;;;;;0.40;0.40;;;8.80;99.90;;;;;;4402581;32;20081;-76
2022/10/09 02:08:52;;;;;;;0.30;0.30;;;8.70;99.90;;;;;;4421297;32;20085;-76
2022/10/09 02:11:20;;;;;;;0.47;0.47;;;8.70;99.90;;;;;;4417770;32;20128;-76
2022/10/09 02:13:47;;;;;;;0.77;0.40;;;8.60;99.90;;;;;;4418781;32;20584;-76
2022/10/09 02:16:37;;;;;;;0.30;0.30;;;8.70;99.90;;;;;;4413585;32;20070;-76
2022/10/09 02:19:15;;;;;;;0.50;0.50;;;8.60;99.90;;;;;;4401536;32;20102;-76
2022/10/09 02:21:48;;;;;;;0.30;0.30;;;8.60;99.90;;;;;;4420626;32;20120;-76
2022/10/09 02:24:19;;;;;;;0.68;0.68;;;8.60;99.90;;;;;;4416363;32;20565;-76
2022/10/09 02:26:45;;;;;;;0.30;0.30;;;8.50;99.90;;;;;;4419198;32;20439;-76
2022/10/09 02:29:12;;;;;;;0.30;0.30;;;8.40;99.90;;;;;;4417836;32;20074;-76
2022/10/09 02:31:40;;;;;;;0.28;0.28;;;8.40;99.90;;;;;;4420667;32;20065;-76
2022/10/09 02:34:11;;;;;;;0.98;0.93;;;8.40;99.90;;;;;;4402950;32;20078;-75
2022/10/09 02:36:38;;;;;;;0.20;0.20;;;8.30;99.90;;;;;;4405878;32;20089;-76
2022/10/09 02:39:05;;;;;;;0.30;0.30;;;8.20;99.90;;;;;;4418107;32;20066;-76
2022/10/09 02:41:30;;;;;;;0.25;0.25;;;8.30;99.90;;;;;;4424875;32;20081;-76
2022/10/09 02:43:56;;;;;;;0.35;0.35;;;8.20;99.90;;;;;;4418814;32;20442;-75
2022/10/09 02:46:21;;;;;;;0.37;0.37;;;8.20;99.90;;;;;;4416382;32;20094;-75
2022/10/09 02:48:47;;;;;;;0.35;0.35;;;8.20;99.90;;;;;;4417508;32;20066;-75
2022/10/09 02:51:13;;;;;;;0.52;0.52;;;8.10;99.90;;;;;;4419650;32;20102;-75
2022/10/09 02:53:38;;;;;;;0.30;0.30;;;8.10;99.90;;;;;;4421013;32;20093;-75
2022/10/09 02:56:04;;;;;;;0.30;0.30;;;8.10;99.90;;;;;;4416730;32;20082;-75
2022/10/09 02:58:31;;;;;;;2.75;1.15;;;8.10;99.90;;;;;;4417571;32;20061;-75
2022/10/09 03:00:56;;;;;;;0.40;0.40;;;8.10;99.90;;;;;;4417462;32;20093;-75
2022/10/09 03:03:22;;;;;;;7.57;0.68;;;8.10;99.90;;;;;;4413510;32;20081;-75
2022/10/09 03:05:48;;;;;;;0.40;0.40;;;8.10;99.90;;;;;;4399810;32;20423;-75
2022/10/09 03:08:13;;;;;;;0.20;0.20;;;8.10;99.90;;;;;;4414806;32;20106;-75
2022/10/09 03:10:39;;;;;;;0.65;0.65;;;8.10;99.90;;;;;;4416165;32;20070;-75
2022/10/09 03:13:06;;;;;;;0.62;0.35;;;8.10;99.90;;;;;;4421833;32;20493;-75
2022/10/09 03:15:33;;;;;;;0.30;0.30;;;8.10;99.90;;;;;;4415805;32;20069;-75
2022/10/09 03:17:59;;;;;;;2.33;1.05;;;8.20;99.90;;;;;;4416956;32;20085;-75
2022/10/09 03:20:24;;;;;;;0.30;0.30;;;8.10;99.90;;;;;;4416854;32;20089;-75
2022/10/09 03:22:50;;;;;;;0.30;0.30;;;8.10;99.90;;;;;;4418035;32;20105;-75
2022/10/09 03:25:16;;;;;;;0.50;0.50;;;8.10;99.90;;;;;;4420395;32;20157;-75
2022/10/09 03:27:42;;;;;;;0.30;0.30;;;8.10;99.90;;;;;;4419826;32;20504;-75
2022/10/09 03:30:08;;;;;;;1.65;0.43;;;8.10;99.90;;;;;;4416289;32;20061;-76
2022/10/09 03:32:33;;;;;;;2.20;0.82;;;8.10;99.90;;;;;;4415848;32;20081;-75
2022/10/09 03:34:59;;;;;;;0.20;0.20;;;8.10;99.90;;;;;;4398183;32;20553;-75
2022/10/09 03:37:24;;;;;;;0.68;0.68;;;8.00;99.90;;;;;;4411029;32;20085;-75
2022/10/09 03:39:50;;;;;;;0.50;0.50;;;7.90;99.90;;;;;;4421961;32;20075;-75
2022/10/09 03:42:15;;;;;;;0.40;0.40;;;8.00;99.90;;;;;;4417762;32;20069;-75
2022/10/09 03:44:41;;;;;;;0.30;0.30;;;8.00;99.90;;;;;;4421474;32;20078;-75
2022/10/09 03:47:07;;;;;;;0.60;0.60;;;8.00;99.90;;;;;;4414972;32;20125;-75
2022/10/09 03:49:32;;;;;;;0.68;0.45;;;7.90;99.90;;;;;;4418999;32;20066;-75
2022/10/09 03:51:57;;;;;;;3.08;0.40;;;7.80;99.90;;;;;;4417520;32;20096;-75
2022/10/09 03:54:23;;;;;;;0.30;0.30;;;7.80;99.90;;;;;;4419317;32;20073;-75
2022/10/09 03:56:48;;;;;;;0.20;0.20;;;7.80;99.90;;;;;;4419764;32;20132;-75
2022/10/09 03:59:14;;;;;;;1.87;0.75;;;7.80;99.90;;;;;;4415225;32;20066;-75
2022/10/09 04:01:39;;;;;;;0.30;0.30;;;7.90;99.90;;;;;;4417086;32;20439;-74
2022/10/09 04:04:05;;;;;;;0.93;0.70;;;7.90;99.90;;;;;;4405771;32;20120;-74
2022/10/09 04:06:30;;;;;;;3.12;1.05;;;7.90;99.90;;;;;;4404073;32;20082;-74
2022/10/09 04:08:56;;;;;;;0.50;0.43;;;7.90;99.90;;;;;;4419155;32;20516;-75
2022/10/09 04:11:22;;;;;;;0.57;0.57;;;7.90;99.90;;;;;;4419390;32;20426;-75
2022/10/09 04:13:47;;;;;;;0.60;0.60;;;7.90;99.90;;;;;;4415192;32;20087;-75
2022/10/09 04:16:13;;;;;;;6.85;1.95;;;7.90;99.90;;;;;;4416061;32;20136;-74
2022/10/09 04:18:39;;;;;;;0.32;0.32;;;7.80;99.90;;;;;;4415406;32;20455;-75
2022/10/09 04:21:05;;;;;;;0.20;0.20;;;7.80;99.90;;;;;;4416107;32;20129;-76
2022/10/09 04:23:30;;;;;;;0.40;0.40;;;7.70;99.90;;;;;;4414074;32;20419;-76
2022/10/09 04:25:58;;;;;;;0.95;0.52;;;7.70;99.90;;;;;;4417971;32;20065;-76
2022/10/09 04:28:24;;;;;;;0.32;0.32;;;7.70;99.90;;;;;;4417828;32;20121;-76
2022/10/09 04:30:50;;;;;;;0.52;0.52;;;7.60;99.90;;;;;;4413805;32;20056;-76
2022/10/09 04:33:15;;;;;;;0.40;0.40;;;7.50;99.90;;;;;;4407836;32;20094;-76
2022/10/09 04:35:42;;;;;;;0.30;0.30;;;7.40;99.90;;;;;;4397605;32;20093;-76
2022/10/09 04:38:07;;;;;;;0.52;0.52;;;7.50;99.90;;;;;;4413423;32;20138;-76
2022/10/09 04:40:33;;;;;;;0.30;0.30;;;7.50;99.90;;;;;;4419168;32;20127;-76
2022/10/09 04:42:58;;;;;;;0.40;0.40;;;7.50;99.90;;;;;;4419594;32;20517;-76
2022/10/09 04:45:24;;;;;;;0.62;0.62;;;7.50;99.90;;;;;;4416975;32;20081;-76
2022/10/09 04:47:49;;;;;;;2.83;1.12;;;7.60;99.90;;;;;;4412875;32;20105;-76
2022/10/09 04:50:15;;;;;;;0.62;0.50;;;7.60;99.90;;;;;;4417940;32;20076;-76
2022/10/09 04:52:41;;;;;;;0.40;0.40;;;7.60;99.90;;;;;;4418995;32;20070;-77
2022/10/09 04:55:06;;;;;;;0.90;0.40;;;7.60;99.90;;;;;;4417517;32;20526;-76
2022/10/09 04:57:32;;;;;;;0.30;0.30;;;7.60;99.90;;;;;;4415094;32;20062;-76
2022/10/09 04:59:57;;;;;;;1.15;0.70;;;7.60;99.90;;;;;;4416993;32;20093;-76
2022/10/09 05:02:23;;;;;;;0.45;0.45;;;7.40;99.90;;;;;;4416592;32;20118;-76
2022/10/09 05:04:48;;;;;;;0.82;0.82;;;7.40;99.90;;;;;;4397797;32;20065;-76
2022/10/09 05:07:14;;;;;;;1.25;0.55;;;7.40;99.90;;;;;;4406392;32;20092;-76
2022/10/09 05:09:39;;;;;;;0.35;0.35;;;7.40;99.90;;;;;;4415713;32;20157;-75
2022/10/09 05:12:06;;;;;;;0.40;0.40;;;7.40;99.90;;;;;;4417961;32;20090;-76
2022/10/09 05:14:32;;;;;;;0.60;0.60;;;7.50;99.90;;;;;;4415131;32;20124;-75
2022/10/09 05:17:01;;;;;;;0.30;0.30;;;7.50;99.90;;;;;;4414154;32;20077;-75
2022/10/09 05:19:27;;;;;;;0.50;0.50;;;7.40;99.90;;;;;;4412779;32;20093;-75
2022/10/09 05:21:53;;;;;;;0.80;0.50;;;7.40;99.90;;;;;;4419580;32;20116;-75
2022/10/09 05:24:18;;;;;;;0.43;0.43;;;7.40;99.90;;;;;;4415898;32;20070;-75
2022/10/09 05:26:44;;;;;;;0.32;0.32;;;7.40;99.90;;;;;;4415041;32;20208;-76
2022/10/09 05:29:09;;;;;;;0.35;0.35;;;7.40;99.90;;;;;;4415766;32;20127;-75
2022/10/09 05:31:36;;;;;;;0.62;0.62;;;7.30;99.90;;;;;;4417267;32;20545;-75
2022/10/09 05:34:02;;;;;;;0.35;0.35;;;7.30;99.90;;;;;;4400161;32;20073;-75
2022/10/09 05:36:28;;;;;;;0.30;0.30;;;7.30;99.90;;;;;;4403336;32;20082;-76
2022/10/09 05:38:54;;;;;;;0.40;0.40;;;7.30;99.90;;;;;;4417522;32;20534;-75
2022/10/09 05:41:19;;;;;;;1.33;1.23;;;7.20;99.90;;;;;;4417690;32;20066;-76
2022/10/09 05:43:47;;;;;;;0.50;0.50;;;7.10;99.90;;;;;;4417412;32;20751;-75
2022/10/09 05:46:16;;;;;;;0.40;0.40;;;7.10;99.90;;;;;;4416614;32;20065;-75
2022/10/09 05:48:43;;;;;;;0.98;0.90;;;7.00;99.90;;;;;;4412987;32;20081;-76
2022/10/09 05:51:12;;;;;;;0.30;0.30;;;7.00;99.90;;;;;;4416700;32;20175;-75
2022/10/09 05:53:38;;;;;;;0.57;0.57;;;7.00;99.90;;;;;;4416689;32;20089;-75
2022/10/09 05:56:26;;;;;;;0.50;0.50;;;7.00;99.90;;;;;;4413663;32;20125;-75
2022/10/09 05:58:54;;;;;;;0.47;0.47;;;7.10;99.90;;;;;;4404595;32;20081;-75
2022/10/09 06:01:21;;;;;;;0.40;0.40;;;7.10;99.90;;;;;;4419924;32;20455;-75
2022/10/09 06:03:50;;;;;;;1.27;0.90;;;7.30;99.90;;;;;;4408248;32;20077;-74
2022/10/09 06:06:17;;;;;;;2.47;0.62;;;7.30;99.90;;;;;;4404143;32;20093;-74
2022/10/09 06:08:42;;;;;;;0.85;0.77;;;7.30;99.90;;;;;;4418131;32;20062;-76
2022/10/09 06:11:09;;;;;;;0.30;0.30;;;7.30;99.90;;;;;;4419888;32;20410;-75
2022/10/09 06:13:35;;;;;;;0.40;0.40;;;7.40;99.90;;;;;;4419664;32;20078;-76
2022/10/09 06:16:01;;;;;;;0.30;0.30;;;7.30;99.90;;;;;;4415271;32;20105;-75
2022/10/09 06:18:27;;;;;;;0.30;0.30;;;7.40;99.90;;;;;;4417306;32;20128;-75
2022/10/09 06:20:54;;;;;;;1.00;0.57;;;7.60;99.90;;;;;;4414618;32;20079;-78
2022/10/09 06:23:20;;;;;;;0.30;0.30;;;7.60;99.90;;;;;;4420756;32;20121;-76
2022/10/09 06:25:55;;;;;;;0.50;0.50;;;7.70;99.90;;;;;;4418814;32;20140;-76
2022/10/09 06:28:21;;;;;;;0.40;0.40;;;7.70;99.90;;;;;;4423085;32;20077;-76
2022/10/09 06:30:48;;;;;;;0.50;0.50;;;7.70;99.90;;;;;;4420483;32;20069;-75
2022/10/09 06:33:13;;;;;;;0.73;0.70;;;7.70;99.90;;;;;;4411869;32;20518;-74
2022/10/09 06:35:39;;;;;;;0.40;0.40;;;7.80;99.90;;;;;;4399926;32;20106;-76
2022/10/09 06:38:05;;;;;;;0.30;0.30;;;7.80;99.90;;;;;;4415469;32;20069;-75
2022/10/09 06:40:34;;;;;;;0.40;0.40;;;7.80;99.90;;;;;;4419272;32;20065;-76
2022/10/09 06:43:00;;;;;;;0.30;0.30;;;7.90;99.90;;;;;;4416867;32;20155;-75
2022/10/09 06:45:25;;;;;;;0.35;0.35;;;8.00;99.90;;;;;;4416498;32;20573;-76
2022/10/09 06:47:51;;;;;;;3.50;1.10;;;8.00;99.90;;;;;;4416998;32;20076;-76
2022/10/09 06:50:16;;;;;;;0.70;0.50;;;8.10;99.90;;;;;;4419968;32;20509;-76
2022/10/09 06:52:42;;;;;;;0.20;0.20;;;8.00;99.90;;;;;;4423916;32;20827;-76
2022/10/09 06:55:08;;;;;;;0.30;0.30;;;8.10;99.90;;;;;;4416826;32;20568;-77
2022/10/09 06:57:33;;;;;;;0.50;0.50;;;8.00;99.90;;;;;;4417241;32;20105;-74
2022/10/09 06:59:59;;;;;;;2.40;1.00;;;8.20;99.90;;;;;;4419594;32;20514;-75
2022/10/09 07:02:25;;;;;;;0.37;0.37;;;8.30;99.90;;;;;;4420536;32;20097;-75
2022/10/09 07:04:50;;;;;;;0.30;0.30;;;8.40;99.90;;;;;;4398320;32;20084;-75
2022/10/09 07:07:16;;;;;;;1.23;0.37;;;8.60;99.90;;;;;;4407783;32;20128;-75
2022/10/09 07:09:41;;;;;;;0.68;0.68;;;8.60;99.90;;;;;;4419108;32;20150;-76
2022/10/09 07:12:07;;;;;;;5.15;0.60;;;8.70;99.90;;;;;;4418735;32;20423;-75
2022/10/09 07:14:32;;;;;;;1.50;1.35;;;8.80;99.90;;;;;;4418385;32;20085;-77
2022/10/09 07:16:58;;;;;;;0.65;0.65;;;8.80;99.90;;;;;;4419127;32;20062;-75
2022/10/09 07:19:23;;;;;;;0.32;0.32;;;8.90;99.90;;;;;;4417526;32;20069;-75
2022/10/09 07:21:49;;;;;;;0.50;0.50;;;9.00;99.90;;;;;;4418239;32;20109;-75
2022/10/09 07:24:16;;;;;;;0.55;0.55;;;9.00;99.90;;;;;;4417812;32;20078;-76
2022/10/09 07:26:43;;;;;;;1.45;0.73;;;9.10;99.90;;;;;;4419288;32;20078;-77
2022/10/09 07:29:11;;;;;;;0.60;0.60;;;9.10;99.90;;;;;;4419223;32;20116;-76
2022/10/09 07:31:37;;;;;;;24.12;1.33;;;9.20;99.90;;;;;;4415657;32;20517;-74
2022/10/09 07:34:02;;;;;;;0.70;0.60;;;9.30;99.90;;;;;;4403220;32;20089;-76
2022/10/09 07:36:28;;;;;;;1.00;0.40;;;9.40;99.90;;;;;;4403029;32;20073;-76
2022/10/09 07:38:56;;;;;;;0.45;0.45;;;9.40;99.90;;;;;;4418306;32;20074;-76
2022/10/09 07:41:23;;;;;;;0.52;0.52;;;9.50;99.90;;;;;;4414654;32;20085;-76
2022/10/09 07:43:49;;;;;;;0.43;0.43;;;9.50;99.90;;;;;;4418507;32;20066;-76
2022/10/09 07:46:17;;;;;;;0.57;0.57;;;9.60;99.90;;;;;;4415220;32;20144;-76
2022/10/09 07:48:43;;;;;;;0.30;0.30;;;9.70;99.90;;;;;;4416653;32;20066;-76
2022/10/09 07:51:10;;;;;;;0.65;0.65;;;9.80;99.90;;;;;;4416249;32;20218;-76
2022/10/09 07:53:37;;;;;;;1.15;0.95;;;9.90;99.90;;;;;;4415524;32;20085;-76
2022/10/09 07:56:04;;;;;;;1.08;0.68;;;9.90;99.90;;;;;;4418922;32;20073;-76
2022/10/09 07:58:30;;;;;;;0.40;0.40;;;10.00;99.90;;;;;;4417063;32;20078;-76
2022/10/09 08:01:01;;;;;;;0.30;0.30;;;10.00;99.90;;;;;;4414356;32;20114;-76
2022/10/09 08:03:27;;;;;;;;;;;10.10;99.90;;;;;;4408580;32;20069;-76
2022/10/09 08:05:54;;;;;;;10.13;2.25;;;10.10;99.90;;;;;;4397958;32;20015;-76
2022/10/09 08:08:19;;;;;;;0.73;0.73;;;10.20;99.90;;;;;;4415594;32;20505;-76
2022/10/09 08:10:45;;;;;;;2.80;0.90;;;10.20;99.90;;;;;;4417920;32;20070;-76
2022/10/09 08:13:11;;;;;;;0.30;0.30;;;10.40;99.90;;;;;;4416307;32;20062;-77
2022/10/09 08:15:41;;;;;;;0.40;0.40;;;10.40;99.90;;;;;;4418844;32;20054;-77
2022/10/09 08:18:07;;;;;;;0.50;0.40;;;10.50;99.90;;;;;;4415903;32;20082;-76
2022/10/09 08:20:32;;;;;;;5.62;1.42;;;10.50;99.90;;;;;;4417138;32;20073;-76
2022/10/09 08:22:58;;;;;;;2.08;0.50;;;10.60;99.90;;;;;;4417318;32;20125;-76
2022/10/09 08:25:23;;;;;;;0.50;0.50;;;10.60;99.90;;;;;;4416147;32;20533;-76
2022/10/09 08:27:52;;;;;;;1.45;0.82;;;10.70;99.90;;;;;;4417911;32;20117;-77
2022/10/09 08:30:17;;;;;;;0.55;0.55;;;10.70;99.90;;;;;;4416301;32;20488;-76
2022/10/09 08:32:43;;;;;;;3.70;0.45;;;10.80;99.90;;;;;;4413032;32;109776;-76
2022/10/09 08:35:08;;;;;;;0.68;0.68;;;10.90;99.90;;;;;;4399088;32;20073;-77
2022/10/09 08:37:34;;;;;;;0.75;0.60;;;10.90;99.90;;;;;;4409962;32;20170;-75
2022/10/09 08:39:59;;;;;;;4.87;1.30;;;11.00;99.90;;;;;;4415177;32;20714;-76
2022/10/09 08:42:47;;;;;;;0.75;0.52;;;11.10;99.90;;;;;;4416225;32;20424;-76
2022/10/09 08:45:15;;;;;;;2.33;0.77;;;11.30;99.90;;;;;;4412875;32;20803;-75
2022/10/09 08:47:46;;;;;;;0.65;0.65;;;11.40;99.90;;;;;;4416079;32;20078;-76
2022/10/09 08:50:18;;;;;;;0.47;0.47;;;11.50;99.90;;;;;;4418613;32;20181;-76
2022/10/09 08:53:07;;;;;;;0.22;0.22;;;11.60;99.90;;;;;;4416572;32;20074;-76
2022/10/09 08:55:42;;;;;;;0.60;0.55;;;11.60;99.90;;;;;;4413852;32;20139;-76
2022/10/09 08:58:14;;;;;;;0.30;0.30;;;11.50;99.90;;;;;;4415786;32;20098;-76
2022/10/09 09:01:02;;;;;;;0.50;0.50;;;11.60;99.90;;;;;;4419279;32;20309;-76
2022/10/09 09:03:42;;;;;;;0.47;0.47;;;11.80;99.90;;;;;;4396340;32;20081;-76
2022/10/09 09:06:18;;;;;;;0.30;0.30;;;11.80;99.90;;;;;;4400151;32;20565;-76
2022/10/09 09:08:53;;;;;;;1.08;0.77;;;11.90;99.90;;;;;;4416072;32;20500;-76
2022/10/09 09:11:58;;;;;;;0.50;0.50;;;12.00;99.90;;;;;;4413937;32;20081;-76
2022/10/09 09:14:47;;;;;;;0.40;0.40;;;12.10;99.90;;;;;;4407239;32;20577;-76
2022/10/09 09:17:19;;;;;;;5.78;2.15;;;12.20;99.90;;;;;;4416533;32;20428;-76
2022/10/09 09:19:59;;;;;;;3.62;1.42;;;12.20;99.90;;;;;;4400843;32;20842;-76
2022/10/09 09:22:25;;;;;;;0.30;0.30;;;12.40;99.90;;;;;;4416003;32;20131;-76
2022/10/09 09:24:54;;;;;;;0.73;0.73;;;12.40;99.90;;;;;;4419597;32;20078;-76
2022/10/09 09:27:26;;;;;;;0.80;0.70;;;12.50;99.90;;;;;;4414820;32;20086;-76
2022/10/09 09:30:14;;;;;;;15.40;2.30;;;12.60;99.90;;;;;;4414807;32;20074;-76
2022/10/09 09:32:50;;;;;;;0.60;0.60;;;12.70;99.90;;;;;;4404157;32;20174;-76
2022/10/09 09:35:46;;;;;;;0.40;0.40;;;12.80;99.90;;;;;;4395945;32;20146;-75
2022/10/09 09:38:14;;;;;;;0.52;0.52;;;12.80;99.90;;;;;;4402441;32;20113;-76
2022/10/09 09:40:39;;;;;;;0.45;0.45;;;12.90;99.90;;;;;;4416624;32;20125;-76
2022/10/09 09:43:17;;;;;;;0.30;0.30;;;13.10;99.90;;;;;;4418798;32;20097;-76
2022/10/09 09:45:44;;;;;;;0.30;0.30;;;13.10;99.90;;;;;;4420929;32;20066;-76
2022/10/09 09:48:17;;;;;;;0.43;0.43;;;13.20;99.90;;;;;;4420404;32;20075;-76
2022/10/09 09:50:43;;;;;;;0.40;0.40;;;13.40;99.90;;;;;;4422786;32;20082;-76
2022/10/09 09:53:31;;;;;;;0.50;0.50;;;13.40;99.90;;;;;;4419924;32;20234;-76
2022/10/09 09:55:57;;;;;;;0.77;0.77;;;13.50;99.90;;;;;;4410987;32;20073;-77
2022/10/09 09:58:29;;;;;;;6.60;0.40;;;13.40;99.90;;;;;;4417336;32;20152;-76
2022/10/09 10:00:59;;;;;;;22.02;1.33;;;13.50;99.90;;;;;;4416082;32;20124;-76
2022/10/09 10:03:26;;;;;;;0.70;0.70;;;13.60;99.90;;;;;;4411850;32;20070;-76
2022/10/09 10:05:52;;;;;;;0.50;0.50;;;13.70;99.90;;;;;;4399872;32;20888;-76
2022/10/09 10:08:23;;;;;;;4.45;0.93;;;13.90;99.90;;;;;;4414129;32;20064;-76
2022/10/09 10:10:51;;;;;;;0.65;0.65;;;14.00;99.90;;;;;;4414781;32;20101;-76
2022/10/09 10:13:20;;;;;;;0.55;0.55;;;14.00;99.90;;;;;;4423527;32;20065;-76
2022/10/09 10:15:50;;;;;;;0.50;0.50;;;13.90;99.90;;;;;;4418697;32;20069;-76
2022/10/09 10:18:17;;;;;;;0.40;0.40;;;13.90;99.90;;;;;;4416497;32;20144;-76
2022/10/09 10:20:47;;;;;;;0.55;0.55;;;13.90;99.90;;;;;;4417266;32;20078;-76
2022/10/09 10:23:34;;;;;;;1.23;1.12;;;14.00;99.90;;;;;;4419816;32;20077;-76
2022/10/09 10:26:08;;;;;;;4.40;0.50;;;14.10;99.90;;;;;;4407548;32;20497;-76
2022/10/09 10:28:45;;;;;;;0.57;0.45;;;14.20;99.90;;;;;;4420153;32;20517;-76
2022/10/09 10:31:22;;;;;;;3.20;0.60;;;14.20;99.90;;;;;;4416566;32;20163;-76
2022/10/09 10:33:53;;;;;;;0.50;0.50;;;14.30;99.90;;;;;;4402955;32;20640;-76
2022/10/09 10:36:19;;;;;;;0.60;0.60;;;14.40;99.90;;;;;;4404361;32;20489;-76
2022/10/09 10:38:56;;;;;;;0.62;0.62;;;14.50;99.90;;;;;;4422676;32;20076;-77
2022/10/09 10:41:29;;;;;;;0.43;0.43;;;14.60;99.90;;;;;;4413476;32;20106;-76
2022/10/09 10:44:02;;;;;;;2.85;0.50;;;14.70;99.90;;;;;;4415718;32;20148;-76
2022/10/09 10:46:31;;;;;;;0.55;0.55;;;14.80;99.90;;;;;;4414991;32;20091;-77
2022/10/09 10:48:58;;;;;;;8.27;1.85;;;14.80;99.90;;;;;;4418280;32;20713;-76
2022/10/09 10:51:49;;;;;;;0.70;0.70;;;14.90;99.90;;;;;;4419753;32;20081;-76
2022/10/09 10:54:37;;;;;;;0.45;0.45;;;15.10;99.90;;;;;;4408508;32;20069;-77
2022/10/09 10:57:27;;;;;;;3.60;0.88;;;15.10;99.90;;;;;;4411036;32;20078;-77
2022/10/09 11:00:05;;;;;;;1.25;1.15;;;15.30;99.90;;;;;;4404461;32;20099;-77
2022/10/09 11:02:44;;;;;;;5.05;0.90;;;15.50;99.90;;;;;;4410583;32;20070;-76
2022/10/09 11:05:12;;;;;;;0.60;0.60;;;15.80;99.90;;;;;;4397256;32;20078;-76
2022/10/09 11:07:49;;;;;;;0.32;0.32;;;16.00;99.90;;;;;;4411224;32;20077;-77
2022/10/09 11:10:33;;;;;;;4.60;1.17;;;16.10;99.90;;;;;;4418239;32;20614;-76
2022/10/09 11:13:09;;;;;;;0.40;0.40;;;15.80;99.90;;;;;;4418522;32;20121;-76
2022/10/09 11:15:59;;;;;;;0.40;0.40;;;15.60;99.90;;;;;;4417384;32;20621;-76
2022/10/09 11:18:51;;;;;;;1.73;0.75;;;15.70;99.90;;;;;;4408910;32;20525;-76
2022/10/09 11:21:41;;;;;;;1.00;0.80;;;16.00;99.90;;;;;;4405672;32;20062;-76
2022/10/09 11:24:42;;;;;;;0.40;0.40;;;16.30;99.90;;;;;;4418470;32;20098;-77
2022/10/09 11:27:12;;;;;;;;;;;16.60;99.90;;;;;;4403669;32;20466;-76
2022/10/09 11:29:44;;;;;;;6.20;0.62;;;16.80;99.90;;;;;;4418689;32;20353;-77
2022/10/09 11:32:34;;;;;;;6.15;0.75;;;16.70;99.90;;;;;;4416697;32;20061;-76
2022/10/09 11:35:26;;;;;;;0.50;0.50;;;17.10;99.90;;;;;;4399528;32;20611;-76
2022/10/09 11:37:58;;;;;;;0.35;0.35;;;17.60;99.90;;;;;;4400923;32;20371;-77
2022/10/09 11:40:29;;;;;;;0.77;0.55;;;18.00;99.90;;;;;;4416540;32;20123;-77
2022/10/09 11:42:59;;;;;;;;;;;17.90;99.90;;;;;;4416763;32;20442;-78
2022/10/09 11:45:35;;;;;;;0.85;0.70;;;18.20;99.90;;;;;;4419198;32;19953;-77
2022/10/09 11:48:17;;;;;;;0.40;0.40;;;18.80;99.90;;;;;;4417269;32;20085;-78
2022/10/09 11:50:59;;;;;;;0.50;0.50;;;19.10;99.90;;;;;;4404543;32;20110;-77
2022/10/09 11:53:28;;;;;;;0.40;0.40;;;19.10;99.90;;;;;;4417281;32;20077;-77
2022/10/09 11:56:05;;;;;;;0.40;0.40;;;19.30;99.90;;;;;;4417681;32;20488;-78
2022/10/09 11:58:31;;;;;;;0.80;0.77;;;19.50;99.90;;;;;;4416258;32;20070;-77
2022/10/09 12:01:10;;;;;;;3.40;0.77;;;19.20;99.90;;;;;;4416679;32;20113;-76
2022/10/09 12:03:38;;;;;;;0.40;0.40;;;18.30;99.90;;;;;;4408140;32;20106;-76
2022/10/09 12:06:09;;;;;;;0.57;0.57;;;18.00;99.90;;;;;;4402389;32;20599;-76
2022/10/09 12:08:36;;;;;;;0.88;0.70;;;18.30;99.90;;;;;;4415235;32;20474;-77
2022/10/09 12:11:18;;;;;;;0.40;0.40;;;19.10;99.90;;;;;;4418431;32;20073;-76
2022/10/09 12:13:49;;;;;;;0.30;0.30;;;19.20;99.90;;;;;;4406043;32;20102;-77
2022/10/09 12:16:35;;;;;;;0.43;0.43;;;19.00;99.90;;;;;;4417955;32;20505;-77
2022/10/09 12:19:24;;;;;;;1.02;1.02;;;18.60;99.90;;;;;;4412152;32;20114;-76
2022/10/09 12:21:56;;;;;;;0.30;0.30;;;18.40;99.90;;;;;;4412062;32;21355;-76
2022/10/09 12:24:25;;;;;;;0.43;0.43;;;18.90;99.90;;;;;;4404612;32;21119;-76
2022/10/09 12:26:53;;;;;;;2.30;1.20;;;19.40;99.90;;;;;;4416684;32;20624;-76
2022/10/09 12:29:26;;;;;;;0.40;0.40;;;19.40;99.90;;;;;;4415156;32;20090;-76
2022/10/09 12:31:55;;;;;;;0.20;0.20;;;19.60;99.90;;;;;;4419101;32;20066;-77
2022/10/09 12:34:29;;;;;;;0.30;0.30;;;20.20;99.90;;;;;;4397936;32;20064;-76
2022/10/09 12:37:11;;;;;;;2.75;0.52;;;20.60;99.90;;;;;;4408436;32;20212;-76
2022/10/09 12:39:37;;;;;;;14.40;2.37;;;20.70;99.90;;;;;;4415817;32;20569;-77
2022/10/09 12:42:03;;;;;;;0.73;0.73;;;20.50;99.90;;;;;;4414902;32;20105;-77
2022/10/09 12:44:35;;;;;;;4.85;0.82;;;19.70;99.90;;;;;;4415354;32;20097;-76
2022/10/09 12:47:05;;;;;;;2.55;0.52;;;19.30;99.90;;;;;;4414647;32;20066;-76
2022/10/09 12:49:30;;;;;;;0.90;0.50;;;19.10;99.90;;;;;;4415018;32;20069;-76
2022/10/09 12:51:58;;;;;;;0.50;0.50;;;19.20;99.90;;;;;;4418111;32;20537;-76
2022/10/09 12:54:25;;;;;;;0.40;0.40;;;19.00;99.90;;;;;;4416199;32;20577;-76
2022/10/09 12:56:54;;;;;;;0.75;0.65;;;18.70;99.90;;;;;;4415010;32;20131;-76
2022/10/09 12:59:21;;;;;;;0.40;0.40;;;18.80;99.90;;;;;;4417265;32;20521;-75
2022/10/09 13:01:48;;;;;;;4.12;0.62;;;18.30;99.90;;;;;;4417780;32;20840;-76
2022/10/09 13:04:31;;;;;;;1.05;1.00;;;18.30;99.90;;;;;;4398377;32;20216;-75
2022/10/09 13:07:00;;;;;;;0.35;0.35;;;18.40;99.90;;;;;;4407168;32;20178;-75